sensor_id;sensor_type;location;lat;lon;timestamp;P1;durP1;ratioP1;P2;durP2;ratioP2
45114;SDS011;30877;43.706;10.780;2023-04-15T00:01:11;8.07;;;1.27;;
45114;SDS011;30877;43.706;10.780;2023-04-15T00:03:45;6.32;;;1.45;;
45114;SDS011;30877;43.706;10.780;2023-04-15T00:06:14;7.20;;;1.55;;
45114;SDS011;30877;43.706;10.780;2023-04-15T00:28:36;7.35;;;1.35;;
45114;SDS011;30877;43.706;10.780;2023-04-15T00:31:04;5.72;;;1.27;;
45114;SDS011;30877;43.706;10.780;2023-04-15T00:33:33;6.47;;;1.30;;
45114;SDS011;30877;43.706;10.780;2023-04-15T00:36:03;6.32;;;1.23;;
45114;SDS011;30877;43.706;10.780;2023-04-15T01:12:19;5.50;;;1.08;;
45114;SDS011;30877;43.706;10.780;2023-04-15T01:14:47;3.75;;;0.57;;
45114;SDS011;30877;43.706;10.780;2023-04-15T01:17:15;5.18;;;0.80;;
45114;SDS011;30877;43.706;10.780;2023-04-15T01:23:28;6.63;;;1.20;;
45114;SDS011;30877;43.706;10.780;2023-04-15T01:25:58;3.97;;;1.27;;
45114;SDS011;30877;43.706;10.780;2023-04-15T01:28:27;4.82;;;0.80;;
45114;SDS011;30877;43.706;10.780;2023-04-15T01:31:06;6.25;;;0.90;;
45114;SDS011;30877;43.706;10.780;2023-04-15T01:46:11;5.00;;;0.88;;
45114;SDS011;30877;43.706;10.780;2023-04-15T01:48:39;2.88;;;0.50;;
45114;SDS011;30877;43.706;10.780;2023-04-15T01:51:08;3.45;;;0.70;;
45114;SDS011;30877;43.706;10.780;2023-04-15T01:53:36;4.40;;;0.57;;
45114;SDS011;30877;43.706;10.780;2023-04-15T01:56:04;5.18;;;0.63;;
45114;SDS011;30877;43.706;10.780;2023-04-15T01:58:34;3.75;;;0.90;;
45114;SDS011;30877;43.706;10.780;2023-04-15T02:01:02;4.25;;;0.75;;
45114;SDS011;30877;43.706;10.780;2023-04-15T02:03:32;5.10;;;0.80;;
45114;SDS011;30877;43.706;10.780;2023-04-15T02:06:01;5.43;;;1.02;;
45114;SDS011;30877;43.706;10.780;2023-04-15T02:08:30;4.55;;;1.10;;
45114;SDS011;30877;43.706;10.780;2023-04-15T03:05:51;4.72;;;0.82;;
45114;SDS011;30877;43.706;10.780;2023-04-15T03:08:19;1.52;;;0.55;;
45114;SDS011;30877;43.706;10.780;2023-04-15T03:10:48;3.00;;;0.75;;
45114;SDS011;30877;43.706;10.780;2023-04-15T03:13:19;4.22;;;0.73;;
45114;SDS011;30877;43.706;10.780;2023-04-15T03:15:48;3.00;;;1.17;;
45114;SDS011;30877;43.706;10.780;2023-04-15T03:18:21;2.42;;;0.68;;
45114;SDS011;30877;43.706;10.780;2023-04-15T03:20:51;1.73;;;0.60;;
45114;SDS011;30877;43.706;10.780;2023-04-15T03:31:47;3.15;;;0.77;;
45114;SDS011;30877;43.706;10.780;2023-04-15T03:34:16;3.53;;;0.70;;
45114;SDS011;30877;43.706;10.780;2023-04-15T03:36:46;2.92;;;0.75;;
45114;SDS011;30877;43.706;10.780;2023-04-15T03:39:14;2.85;;;0.50;;
45114;SDS011;30877;43.706;10.780;2023-04-15T03:41:42;2.05;;;0.47;;
45114;SDS011;30877;43.706;10.780;2023-04-15T04:13:44;1.38;;;0.40;;
45114;SDS011;30877;43.706;10.780;2023-04-15T04:16:12;1.63;;;0.50;;
45114;SDS011;30877;43.706;10.780;2023-04-15T04:18:41;3.80;;;0.77;;
45114;SDS011;30877;43.706;10.780;2023-04-15T04:21:09;1.95;;;0.30;;
45114;SDS011;30877;43.706;10.780;2023-04-15T04:32:00;2.88;;;0.60;;
45114;SDS011;30877;43.706;10.780;2023-04-15T04:34:29;3.28;;;0.40;;
45114;SDS011;30877;43.706;10.780;2023-04-15T04:36:58;2.10;;;0.45;;
45114;SDS011;30877;43.706;10.780;2023-04-15T04:39:26;4.30;;;0.80;;
45114;SDS011;30877;43.706;10.780;2023-04-15T04:41:55;1.77;;;0.40;;
45114;SDS011;30877;43.706;10.780;2023-04-15T04:44:23;4.13;;;0.68;;
45114;SDS011;30877;43.706;10.780;2023-04-15T04:46:51;2.25;;;0.50;;
45114;SDS011;30877;43.706;10.780;2023-04-15T04:49:21;2.38;;;0.57;;
45114;SDS011;30877;43.706;10.780;2023-04-15T04:51:49;2.70;;;0.40;;
45114;SDS011;30877;43.706;10.780;2023-04-15T04:54:18;2.38;;;0.65;;
45114;SDS011;30877;43.706;10.780;2023-04-15T04:56:47;2.72;;;0.70;;
45114;SDS011;30877;43.706;10.780;2023-04-15T04:59:15;2.72;;;0.82;;
45114;SDS011;30877;43.706;10.780;2023-04-15T05:01:45;4.10;;;0.85;;
45114;SDS011;30877;43.706;10.780;2023-04-15T05:04:14;3.08;;;0.60;;
45114;SDS011;30877;43.706;10.780;2023-04-15T05:06:44;2.85;;;0.50;;
45114;SDS011;30877;43.706;10.780;2023-04-15T05:09:12;3.05;;;0.50;;
45114;SDS011;30877;43.706;10.780;2023-04-15T05:11:41;5.20;;;1.10;;
45114;SDS011;30877;43.706;10.780;2023-04-15T05:14:09;5.38;;;1.05;;
45114;SDS011;30877;43.706;10.780;2023-04-15T05:16:37;4.47;;;0.77;;
45114;SDS011;30877;43.706;10.780;2023-04-15T05:19:06;4.85;;;1.13;;
45114;SDS011;30877;43.706;10.780;2023-04-15T05:21:34;2.42;;;0.93;;
45114;SDS011;30877;43.706;10.780;2023-04-15T05:24:06;3.13;;;0.80;;
45114;SDS011;30877;43.706;10.780;2023-04-15T05:26:35;4.88;;;0.80;;
45114;SDS011;30877;43.706;10.780;2023-04-15T05:29:03;4.25;;;0.70;;
45114;SDS011;30877;43.706;10.780;2023-04-15T05:31:31;4.85;;;1.15;;
45114;SDS011;30877;43.706;10.780;2023-04-15T05:34:00;3.63;;;1.00;;
45114;SDS011;30877;43.706;10.780;2023-04-15T05:36:28;6.07;;;0.93;;
45114;SDS011;30877;43.706;10.780;2023-04-15T05:38:57;5.35;;;1.15;;
45114;SDS011;30877;43.706;10.780;2023-04-15T05:41:27;2.63;;;1.27;;
45114;SDS011;30877;43.706;10.780;2023-04-15T05:43:56;5.28;;;1.17;;
45114;SDS011;30877;43.706;10.780;2023-04-15T05:46:24;3.67;;;1.08;;
45114;SDS011;30877;43.706;10.780;2023-04-15T05:48:52;8.27;;;1.30;;
45114;SDS011;30877;43.706;10.780;2023-04-15T05:51:22;3.47;;;1.10;;
45114;SDS011;30877;43.706;10.780;2023-04-15T05:53:50;4.45;;;0.98;;
45114;SDS011;30877;43.706;10.780;2023-04-15T05:56:19;3.47;;;1.00;;
45114;SDS011;30877;43.706;10.780;2023-04-15T05:59:04;3.80;;;0.90;;
45114;SDS011;30877;43.706;10.780;2023-04-15T06:02:04;2.78;;;0.85;;
45114;SDS011;30877;43.706;10.780;2023-04-15T06:04:33;3.47;;;0.88;;
45114;SDS011;30877;43.706;10.780;2023-04-15T06:07:02;3.53;;;0.80;;
45114;SDS011;30877;43.706;10.780;2023-04-15T06:09:30;7.28;;;1.20;;
45114;SDS011;30877;43.706;10.780;2023-04-15T06:11:58;4.25;;;1.08;;
45114;SDS011;30877;43.706;10.780;2023-04-15T06:14:29;3.88;;;0.98;;
45114;SDS011;30877;43.706;10.780;2023-04-15T06:16:57;4.53;;;1.33;;
45114;SDS011;30877;43.706;10.780;2023-04-15T06:19:26;4.53;;;1.20;;
45114;SDS011;30877;43.706;10.780;2023-04-15T06:21:55;3.55;;;0.93;;
45114;SDS011;30877;43.706;10.780;2023-04-15T06:24:24;3.00;;;1.00;;
45114;SDS011;30877;43.706;10.780;2023-04-15T06:26:52;3.22;;;0.70;;
45114;SDS011;30877;43.706;10.780;2023-04-15T06:29:20;3.78;;;0.95;;
45114;SDS011;30877;43.706;10.780;2023-04-15T06:31:50;5.28;;;1.10;;
45114;SDS011;30877;43.706;10.780;2023-04-15T06:34:19;2.95;;;0.90;;
45114;SDS011;30877;43.706;10.780;2023-04-15T06:36:47;4.65;;;1.02;;
45114;SDS011;30877;43.706;10.780;2023-04-15T06:39:16;3.58;;;0.88;;
45114;SDS011;30877;43.706;10.780;2023-04-15T06:41:44;3.65;;;0.77;;
45114;SDS011;30877;43.706;10.780;2023-04-15T06:44:13;4.72;;;0.80;;
45114;SDS011;30877;43.706;10.780;2023-04-15T06:46:41;2.85;;;0.80;;
45114;SDS011;30877;43.706;10.780;2023-04-15T06:49:12;1.23;;;0.50;;
45114;SDS011;30877;43.706;10.780;2023-04-15T06:51:42;39.50;;;28.00;;
45114;SDS011;30877;43.706;10.780;2023-04-15T06:54:10;25.48;;;14.75;;
45114;SDS011;30877;43.706;10.780;2023-04-15T06:56:38;50.67;;;34.30;;
45114;SDS011;30877;43.706;10.780;2023-04-15T06:59:08;51.08;;;34.40;;
45114;SDS011;30877;43.706;10.780;2023-04-15T07:01:36;16.42;;;10.38;;
45114;SDS011;30877;43.706;10.780;2023-04-15T07:04:04;12.25;;;7.53;;
45114;SDS011;30877;43.706;10.780;2023-04-15T07:06:34;8.70;;;3.97;;
45114;SDS011;30877;43.706;10.780;2023-04-15T07:09:03;6.85;;;3.20;;
45114;SDS011;30877;43.706;10.780;2023-04-15T07:11:33;5.38;;;1.98;;
45114;SDS011;30877;43.706;10.780;2023-04-15T07:14:02;3.15;;;1.42;;
45114;SDS011;30877;43.706;10.780;2023-04-15T07:16:33;5.85;;;1.23;;
45114;SDS011;30877;43.706;10.780;2023-04-15T07:19:05;5.47;;;1.30;;
45114;SDS011;30877;43.706;10.780;2023-04-15T07:24:09;3.03;;;1.00;;
45114;SDS011;30877;43.706;10.780;2023-04-15T07:26:38;3.90;;;1.05;;
45114;SDS011;30877;43.706;10.780;2023-04-15T07:29:06;4.00;;;0.95;;
45114;SDS011;30877;43.706;10.780;2023-04-15T07:31:34;1.90;;;0.65;;
45114;SDS011;30877;43.706;10.780;2023-04-15T07:34:03;1.90;;;0.70;;
45114;SDS011;30877;43.706;10.780;2023-04-15T07:36:33;2.95;;;1.10;;
45114;SDS011;30877;43.706;10.780;2023-04-15T07:39:03;33.58;;;2.72;;
45114;SDS011;30877;43.706;10.780;2023-04-15T07:41:32;2.95;;;0.90;;
45114;SDS011;30877;43.706;10.780;2023-04-15T07:44:00;1.85;;;0.70;;
45114;SDS011;30877;43.706;10.780;2023-04-15T07:46:29;2.63;;;0.60;;
45114;SDS011;30877;43.706;10.780;2023-04-15T07:48:57;3.90;;;0.73;;
45114;SDS011;30877;43.706;10.780;2023-04-15T07:51:26;1.20;;;0.60;;
45114;SDS011;30877;43.706;10.780;2023-04-15T07:53:55;2.88;;;0.68;;
45114;SDS011;30877;43.706;10.780;2023-04-15T07:56:25;4.25;;;0.73;;
45114;SDS011;30877;43.706;10.780;2023-04-15T07:58:53;8.73;;;3.58;;
45114;SDS011;30877;43.706;10.780;2023-04-15T08:01:22;2.70;;;0.80;;
45114;SDS011;30877;43.706;10.780;2023-04-15T08:03:50;2.30;;;1.27;;
45114;SDS011;30877;43.706;10.780;2023-04-15T08:06:19;2.58;;;0.82;;
45114;SDS011;30877;43.706;10.780;2023-04-15T08:08:47;3.20;;;0.73;;
45114;SDS011;30877;43.706;10.780;2023-04-15T08:11:15;4.35;;;0.77;;
45114;SDS011;30877;43.706;10.780;2023-04-15T08:13:45;4.70;;;0.70;;
45114;SDS011;30877;43.706;10.780;2023-04-15T08:16:17;1.48;;;0.45;;
45114;SDS011;30877;43.706;10.780;2023-04-15T08:18:47;3.00;;;0.52;;
45114;SDS011;30877;43.706;10.780;2023-04-15T08:21:18;2.95;;;0.60;;
45114;SDS011;30877;43.706;10.780;2023-04-15T08:23:47;3.42;;;0.68;;
45114;SDS011;30877;43.706;10.780;2023-04-15T08:26:16;4.57;;;0.90;;
45114;SDS011;30877;43.706;10.780;2023-04-15T08:28:47;1.92;;;0.40;;
45114;SDS011;30877;43.706;10.780;2023-04-15T08:31:16;2.53;;;0.47;;
45114;SDS011;30877;43.706;10.780;2023-04-15T08:33:45;3.45;;;0.63;;
45114;SDS011;30877;43.706;10.780;2023-04-15T08:36:13;2.33;;;0.40;;
45114;SDS011;30877;43.706;10.780;2023-04-15T08:38:41;0.90;;;0.38;;
45114;SDS011;30877;43.706;10.780;2023-04-15T08:41:11;3.78;;;0.57;;
45114;SDS011;30877;43.706;10.780;2023-04-15T08:43:48;3.33;;;0.70;;
45114;SDS011;30877;43.706;10.780;2023-04-15T08:46:20;1.80;;;0.68;;
45114;SDS011;30877;43.706;10.780;2023-04-15T08:48:49;1.65;;;0.50;;
45114;SDS011;30877;43.706;10.780;2023-04-15T08:51:18;1.60;;;0.68;;
45114;SDS011;30877;43.706;10.780;2023-04-15T08:53:50;1.42;;;0.50;;
45114;SDS011;30877;43.706;10.780;2023-04-15T08:56:19;2.50;;;0.40;;
45114;SDS011;30877;43.706;10.780;2023-04-15T08:58:53;2.50;;;0.50;;
45114;SDS011;30877;43.706;10.780;2023-04-15T09:01:21;1.27;;;0.20;;
45114;SDS011;30877;43.706;10.780;2023-04-15T09:03:50;1.80;;;0.40;;
45114;SDS011;30877;43.706;10.780;2023-04-15T09:06:19;1.10;;;0.40;;
45114;SDS011;30877;43.706;10.780;2023-04-15T09:08:48;3.00;;;0.52;;
45114;SDS011;30877;43.706;10.780;2023-04-15T09:11:16;2.13;;;0.47;;
45114;SDS011;30877;43.706;10.780;2023-04-15T09:13:46;1.50;;;0.52;;
45114;SDS011;30877;43.706;10.780;2023-04-15T09:16:17;1.38;;;0.40;;
45114;SDS011;30877;43.706;10.780;2023-04-15T09:18:45;2.30;;;0.40;;
45114;SDS011;30877;43.706;10.780;2023-04-15T09:21:14;2.72;;;0.40;;
45114;SDS011;30877;43.706;10.780;2023-04-15T09:23:53;2.75;;;0.55;;
45114;SDS011;30877;43.706;10.780;2023-04-15T09:26:31;2.55;;;0.80;;
45114;SDS011;30877;43.706;10.780;2023-04-15T09:29:03;1.05;;;0.38;;
45114;SDS011;30877;43.706;10.780;2023-04-15T09:31:34;0.85;;;0.38;;
45114;SDS011;30877;43.706;10.780;2023-04-15T09:34:03;1.48;;;0.45;;
45114;SDS011;30877;43.706;10.780;2023-04-15T09:36:35;1.63;;;0.40;;
45114;SDS011;30877;43.706;10.780;2023-04-15T09:39:18;1.92;;;0.40;;
45114;SDS011;30877;43.706;10.780;2023-04-15T09:41:47;3.45;;;0.40;;
45114;SDS011;30877;43.706;10.780;2023-04-15T09:44:32;2.22;;;0.80;;
45114;SDS011;30877;43.706;10.780;2023-04-15T09:47:01;3.05;;;0.50;;
45114;SDS011;30877;43.706;10.780;2023-04-15T09:49:30;2.08;;;0.35;;
45114;SDS011;30877;43.706;10.780;2023-04-15T09:51:59;0.75;;;0.20;;
45114;SDS011;30877;43.706;10.780;2023-04-15T09:54:33;1.15;;;0.30;;
45114;SDS011;30877;43.706;10.780;2023-04-15T09:57:06;2.42;;;0.43;;
45114;SDS011;30877;43.706;10.780;2023-04-15T09:59:36;0.40;;;0.20;;
45114;SDS011;30877;43.706;10.780;2023-04-15T10:02:06;2.88;;;0.40;;
45114;SDS011;30877;43.706;10.780;2023-04-15T10:04:35;1.48;;;0.30;;
45114;SDS011;30877;43.706;10.780;2023-04-15T10:07:07;4.25;;;0.40;;
45114;SDS011;30877;43.706;10.780;2023-04-15T10:09:37;1.50;;;0.30;;
45114;SDS011;30877;43.706;10.780;2023-04-15T10:12:06;0.50;;;0.20;;
45114;SDS011;30877;43.706;10.780;2023-04-15T10:14:35;3.20;;;0.40;;
45114;SDS011;30877;43.706;10.780;2023-04-15T10:17:06;1.70;;;0.35;;
45114;SDS011;30877;43.706;10.780;2023-04-15T10:19:37;2.17;;;0.30;;
45114;SDS011;30877;43.706;10.780;2023-04-15T10:22:06;1.52;;;0.20;;
45114;SDS011;30877;43.706;10.780;2023-04-15T10:24:35;1.83;;;0.30;;
45114;SDS011;30877;43.706;10.780;2023-04-15T10:27:05;1.67;;;0.57;;
45114;SDS011;30877;43.706;10.780;2023-04-15T10:29:34;0.32;;;0.13;;
45114;SDS011;30877;43.706;10.780;2023-04-15T10:32:03;1.05;;;0.32;;
45114;SDS011;30877;43.706;10.780;2023-04-15T10:34:37;0.85;;;0.22;;
45114;SDS011;30877;43.706;10.780;2023-04-15T10:37:08;1.38;;;0.20;;
45114;SDS011;30877;43.706;10.780;2023-04-15T10:39:40;1.23;;;0.30;;
45114;SDS011;30877;43.706;10.780;2023-04-15T10:42:10;1.45;;;0.30;;
45114;SDS011;30877;43.706;10.780;2023-04-15T10:44:42;1.27;;;0.20;;
45114;SDS011;30877;43.706;10.780;2023-04-15T10:47:14;2.25;;;1.08;;
45114;SDS011;30877;43.706;10.780;2023-04-15T10:49:46;3.10;;;1.25;;
45114;SDS011;30877;43.706;10.780;2023-04-15T10:52:25;3.55;;;1.55;;
45114;SDS011;30877;43.706;10.780;2023-04-15T10:55:00;2.97;;;1.05;;
45114;SDS011;30877;43.706;10.780;2023-04-15T10:57:37;1.17;;;0.20;;
45114;SDS011;30877;43.706;10.780;2023-04-15T11:00:09;1.73;;;0.47;;
45114;SDS011;30877;43.706;10.780;2023-04-15T11:02:45;1.65;;;0.40;;
45114;SDS011;30877;43.706;10.780;2023-04-15T11:05:19;1.05;;;0.40;;
45114;SDS011;30877;43.706;10.780;2023-04-15T11:07:49;1.80;;;0.40;;
45114;SDS011;30877;43.706;10.780;2023-04-15T11:13:19;2.17;;;0.40;;
45114;SDS011;30877;43.706;10.780;2023-04-15T11:16:02;1.10;;;0.40;;
45114;SDS011;30877;43.706;10.780;2023-04-15T11:18:35;1.95;;;0.40;;
45114;SDS011;30877;43.706;10.780;2023-04-15T11:21:05;1.58;;;0.40;;
45114;SDS011;30877;43.706;10.780;2023-04-15T11:23:37;1.98;;;0.45;;
45114;SDS011;30877;43.706;10.780;2023-04-15T11:26:08;1.00;;;0.25;;
45114;SDS011;30877;43.706;10.780;2023-04-15T11:28:39;0.70;;;0.20;;
45114;SDS011;30877;43.706;10.780;2023-04-15T11:31:12;1.40;;;0.30;;
45114;SDS011;30877;43.706;10.780;2023-04-15T11:33:46;1.75;;;0.45;;
45114;SDS011;30877;43.706;10.780;2023-04-15T11:38:52;2.13;;;0.30;;
45114;SDS011;30877;43.706;10.780;2023-04-15T11:41:20;1.58;;;0.45;;
45114;SDS011;30877;43.706;10.780;2023-04-15T11:43:49;1.35;;;0.40;;
45114;SDS011;30877;43.706;10.780;2023-04-15T11:46:18;1.65;;;0.45;;
45114;SDS011;30877;43.706;10.780;2023-04-15T11:48:50;3.22;;;0.50;;
45114;SDS011;30877;43.706;10.780;2023-04-15T11:51:20;1.98;;;0.50;;
45114;SDS011;30877;43.706;10.780;2023-04-15T11:53:49;1.27;;;0.40;;
45114;SDS011;30877;43.706;10.780;2023-04-15T11:56:18;2.55;;;0.30;;
45114;SDS011;30877;43.706;10.780;2023-04-15T11:58:50;3.13;;;0.47;;
45114;SDS011;30877;43.706;10.780;2023-04-15T12:01:20;2.75;;;0.65;;
45114;SDS011;30877;43.706;10.780;2023-04-15T12:03:59;4.43;;;0.90;;
45114;SDS011;30877;43.706;10.780;2023-04-15T12:06:31;2.85;;;1.60;;
45114;SDS011;30877;43.706;10.780;2023-04-15T12:09:08;2.30;;;0.68;;
45114;SDS011;30877;43.706;10.780;2023-04-15T12:11:39;2.80;;;0.55;;
45114;SDS011;30877;43.706;10.780;2023-04-15T12:14:11;1.25;;;0.50;;
45114;SDS011;30877;43.706;10.780;2023-04-15T12:16:43;1.33;;;0.40;;
45114;SDS011;30877;43.706;10.780;2023-04-15T12:28:40;2.05;;;0.38;;
45114;SDS011;30877;43.706;10.780;2023-04-15T12:31:10;2.50;;;0.65;;
45114;SDS011;30877;43.706;10.780;2023-04-15T12:33:46;1.60;;;0.40;;
45114;SDS011;30877;43.706;10.780;2023-04-15T12:36:15;5.32;;;0.38;;
45114;SDS011;30877;43.706;10.780;2023-04-15T12:38:44;3.03;;;0.40;;
45114;SDS011;30877;43.706;10.780;2023-04-15T12:41:12;3.08;;;0.50;;
45114;SDS011;30877;43.706;10.780;2023-04-15T12:43:43;4.07;;;0.40;;
45114;SDS011;30877;43.706;10.780;2023-04-15T12:46:12;0.80;;;0.30;;
45114;SDS011;30877;43.706;10.780;2023-04-15T12:48:41;1.92;;;0.40;;
45114;SDS011;30877;43.706;10.780;2023-04-15T12:51:10;3.78;;;0.47;;
45114;SDS011;30877;43.706;10.780;2023-04-15T12:53:40;1.30;;;0.38;;
45114;SDS011;30877;43.706;10.780;2023-04-15T12:56:08;2.30;;;0.52;;
45114;SDS011;30877;43.706;10.780;2023-04-15T12:58:37;2.35;;;0.50;;
45114;SDS011;30877;43.706;10.780;2023-04-15T13:01:07;2.05;;;0.50;;
45114;SDS011;30877;43.706;10.780;2023-04-15T13:03:36;1.70;;;0.22;;
45114;SDS011;30877;43.706;10.780;2023-04-15T13:06:04;1.70;;;0.35;;
45114;SDS011;30877;43.706;10.780;2023-04-15T13:08:33;4.07;;;1.85;;
45114;SDS011;30877;43.706;10.780;2023-04-15T13:11:06;1.70;;;0.50;;
45114;SDS011;30877;43.706;10.780;2023-04-15T13:13:34;3.50;;;0.90;;
45114;SDS011;30877;43.706;10.780;2023-04-15T13:16:03;1.23;;;0.40;;
45114;SDS011;30877;43.706;10.780;2023-04-15T13:18:34;2.10;;;0.32;;
45114;SDS011;30877;43.706;10.780;2023-04-15T13:21:02;2.45;;;0.30;;
45114;SDS011;30877;43.706;10.780;2023-04-15T13:23:33;4.82;;;0.50;;
45114;SDS011;30877;43.706;10.780;2023-04-15T13:26:02;1.42;;;0.45;;
45114;SDS011;30877;43.706;10.780;2023-04-15T13:28:30;2.75;;;0.68;;
45114;SDS011;30877;43.706;10.780;2023-04-15T13:30:59;2.50;;;0.30;;
45114;SDS011;30877;43.706;10.780;2023-04-15T13:33:27;3.75;;;0.30;;
45114;SDS011;30877;43.706;10.780;2023-04-15T13:35:57;1.40;;;0.35;;
45114;SDS011;30877;43.706;10.780;2023-04-15T13:38:26;0.70;;;0.20;;
45114;SDS011;30877;43.706;10.780;2023-04-15T13:40:54;2.42;;;0.35;;
45114;SDS011;30877;43.706;10.780;2023-04-15T13:43:23;4.45;;;0.47;;
45114;SDS011;30877;43.706;10.780;2023-04-15T13:45:51;3.55;;;0.80;;
45114;SDS011;30877;43.706;10.780;2023-04-15T13:48:21;0.80;;;0.20;;
45114;SDS011;30877;43.706;10.780;2023-04-15T13:50:50;3.13;;;0.30;;
45114;SDS011;30877;43.706;10.780;2023-04-15T13:53:19;2.70;;;0.20;;
45114;SDS011;30877;43.706;10.780;2023-04-15T13:56:04;16.88;;;1.70;;
45114;SDS011;30877;43.706;10.780;2023-04-15T13:58:33;12.63;;;0.93;;
45114;SDS011;30877;43.706;10.780;2023-04-15T14:01:02;7.10;;;0.85;;
45114;SDS011;30877;43.706;10.780;2023-04-15T14:03:33;8.05;;;0.80;;
45114;SDS011;30877;43.706;10.780;2023-04-15T14:06:03;1.83;;;0.30;;
45114;SDS011;30877;43.706;10.780;2023-04-15T14:08:33;5.15;;;0.55;;
45114;SDS011;30877;43.706;10.780;2023-04-15T14:11:01;1.35;;;0.40;;
45114;SDS011;30877;43.706;10.780;2023-04-15T14:13:30;6.32;;;0.88;;
45114;SDS011;30877;43.706;10.780;2023-04-15T14:15:58;1.48;;;0.30;;
45114;SDS011;30877;43.706;10.780;2023-04-15T14:18:26;1.73;;;0.35;;
45114;SDS011;30877;43.706;10.780;2023-04-15T14:20:56;2.00;;;0.28;;
45114;SDS011;30877;43.706;10.780;2023-04-15T14:23:25;2.13;;;0.70;;
45114;SDS011;30877;43.706;10.780;2023-04-15T14:25:54;0.70;;;0.22;;
45114;SDS011;30877;43.706;10.780;2023-04-15T14:28:23;1.60;;;0.30;;
45114;SDS011;30877;43.706;10.780;2023-04-15T14:30:51;1.08;;;0.30;;
45114;SDS011;30877;43.706;10.780;2023-04-15T14:33:20;1.33;;;0.30;;
45114;SDS011;30877;43.706;10.780;2023-04-15T14:35:49;1.85;;;0.35;;
45114;SDS011;30877;43.706;10.780;2023-04-15T14:38:18;1.73;;;0.40;;
45114;SDS011;30877;43.706;10.780;2023-04-15T14:40:48;1.35;;;0.30;;
45114;SDS011;30877;43.706;10.780;2023-04-15T14:43:19;1.58;;;0.30;;
45114;SDS011;30877;43.706;10.780;2023-04-15T14:45:51;4.13;;;0.40;;
45114;SDS011;30877;43.706;10.780;2023-04-15T14:48:35;1.95;;;0.40;;
45114;SDS011;30877;43.706;10.780;2023-04-15T14:51:18;1.45;;;0.20;;
45114;SDS011;30877;43.706;10.780;2023-04-15T14:53:46;1.73;;;0.50;;
45114;SDS011;30877;43.706;10.780;2023-04-15T14:56:15;1.50;;;0.35;;
45114;SDS011;30877;43.706;10.780;2023-04-15T14:58:45;0.93;;;0.45;;
45114;SDS011;30877;43.706;10.780;2023-04-15T15:01:14;1.20;;;0.30;;
45114;SDS011;30877;43.706;10.780;2023-04-15T15:03:42;1.77;;;0.40;;
45114;SDS011;30877;43.706;10.780;2023-04-15T15:06:11;1.00;;;0.30;;
45114;SDS011;30877;43.706;10.780;2023-04-15T15:08:40;1.42;;;0.55;;
45114;SDS011;30877;43.706;10.780;2023-04-15T15:11:08;1.35;;;0.40;;
45114;SDS011;30877;43.706;10.780;2023-04-15T15:13:37;1.35;;;0.30;;
45114;SDS011;30877;43.706;10.780;2023-04-15T15:16:07;1.67;;;0.45;;
45114;SDS011;30877;43.706;10.780;2023-04-15T15:18:39;1.10;;;0.35;;
45114;SDS011;30877;43.706;10.780;2023-04-15T15:21:07;1.73;;;0.30;;
45114;SDS011;30877;43.706;10.780;2023-04-15T15:23:37;1.42;;;0.30;;
45114;SDS011;30877;43.706;10.780;2023-04-15T15:26:09;2.28;;;0.50;;
45114;SDS011;30877;43.706;10.780;2023-04-15T15:28:38;2.70;;;0.90;;
45114;SDS011;30877;43.706;10.780;2023-04-15T15:31:08;1.90;;;1.20;;
45114;SDS011;30877;43.706;10.780;2023-04-15T15:33:37;2.53;;;1.30;;
45114;SDS011;30877;43.706;10.780;2023-04-15T15:36:05;2.35;;;1.27;;
45114;SDS011;30877;43.706;10.780;2023-04-15T15:38:34;2.92;;;1.38;;
45114;SDS011;30877;43.706;10.780;2023-04-15T15:41:03;4.55;;;3.30;;
45114;SDS011;30877;43.706;10.780;2023-04-15T15:43:32;2.13;;;1.45;;
45114;SDS011;30877;43.706;10.780;2023-04-15T15:46:01;1.75;;;1.20;;
45114;SDS011;30877;43.706;10.780;2023-04-15T15:48:31;2.00;;;1.20;;
45114;SDS011;30877;43.706;10.780;2023-04-15T15:51:02;2.92;;;1.05;;
45114;SDS011;30877;43.706;10.780;2023-04-15T15:53:30;1.25;;;0.90;;
45114;SDS011;30877;43.706;10.780;2023-04-15T15:55:59;1.58;;;0.70;;
45114;SDS011;30877;43.706;10.780;2023-04-15T15:58:30;2.75;;;0.88;;
45114;SDS011;30877;43.706;10.780;2023-04-15T16:00:58;2.10;;;1.33;;
45114;SDS011;30877;43.706;10.780;2023-04-15T16:03:29;1.92;;;0.70;;
45114;SDS011;30877;43.706;10.780;2023-04-15T16:06:04;1.35;;;0.75;;
45114;SDS011;30877;43.706;10.780;2023-04-15T16:08:33;1.33;;;0.57;;
45114;SDS011;30877;43.706;10.780;2023-04-15T16:11:06;1.23;;;0.50;;
45114;SDS011;30877;43.706;10.780;2023-04-15T16:13:37;1.07;;;0.57;;
45114;SDS011;30877;43.706;10.780;2023-04-15T16:16:06;1.67;;;0.93;;
45114;SDS011;30877;43.706;10.780;2023-04-15T16:18:38;3.60;;;0.60;;
45114;SDS011;30877;43.706;10.780;2023-04-15T16:21:06;2.92;;;0.93;;
45114;SDS011;30877;43.706;10.780;2023-04-15T16:23:35;1.85;;;1.10;;
45114;SDS011;30877;43.706;10.780;2023-04-15T16:26:04;12.52;;;9.07;;
45114;SDS011;30877;43.706;10.780;2023-04-15T16:28:32;8.10;;;5.72;;
45114;SDS011;30877;43.706;10.780;2023-04-15T16:31:01;2.97;;;2.13;;
45114;SDS011;30877;43.706;10.780;2023-04-15T16:33:29;4.22;;;3.00;;
45114;SDS011;30877;43.706;10.780;2023-04-15T16:36:00;3.28;;;1.85;;
45114;SDS011;30877;43.706;10.780;2023-04-15T16:38:29;2.08;;;1.13;;
45114;SDS011;30877;43.706;10.780;2023-04-15T16:40:57;5.03;;;1.85;;
45114;SDS011;30877;43.706;10.780;2023-04-15T16:43:27;3.40;;;1.83;;
45114;SDS011;30877;43.706;10.780;2023-04-15T16:45:56;2.60;;;1.27;;
45114;SDS011;30877;43.706;10.780;2023-04-15T16:48:24;2.58;;;1.10;;
45114;SDS011;30877;43.706;10.780;2023-04-15T16:50:53;2.20;;;1.30;;
45114;SDS011;30877;43.706;10.780;2023-04-15T16:53:22;3.53;;;1.13;;
45114;SDS011;30877;43.706;10.780;2023-04-15T16:55:51;3.92;;;0.90;;
45114;SDS011;30877;43.706;10.780;2023-04-15T16:58:19;2.33;;;1.02;;
45114;SDS011;30877;43.706;10.780;2023-04-15T17:00:48;3.08;;;1.30;;
45114;SDS011;30877;43.706;10.780;2023-04-15T17:03:17;3.88;;;1.27;;
45114;SDS011;30877;43.706;10.780;2023-04-15T17:05:46;2.38;;;1.17;;
45114;SDS011;30877;43.706;10.780;2023-04-15T17:08:15;2.08;;;0.70;;
45114;SDS011;30877;43.706;10.780;2023-04-15T17:10:48;2.53;;;0.88;;
45114;SDS011;30877;43.706;10.780;2023-04-15T17:13:28;1.42;;;0.80;;
45114;SDS011;30877;43.706;10.780;2023-04-15T17:15:59;1.15;;;0.60;;
45114;SDS011;30877;43.706;10.780;2023-04-15T17:18:28;1.48;;;0.77;;
45114;SDS011;30877;43.706;10.780;2023-04-15T17:20:57;1.55;;;0.82;;
45114;SDS011;30877;43.706;10.780;2023-04-15T17:23:26;3.08;;;0.85;;
45114;SDS011;30877;43.706;10.780;2023-04-15T17:25:56;1.80;;;0.52;;
45114;SDS011;30877;43.706;10.780;2023-04-15T17:28:24;3.95;;;1.02;;
45114;SDS011;30877;43.706;10.780;2023-04-15T17:30:52;2.90;;;1.20;;
45114;SDS011;30877;43.706;10.780;2023-04-15T17:33:20;4.45;;;1.10;;
45114;SDS011;30877;43.706;10.780;2023-04-15T17:36:10;2.85;;;1.50;;
45114;SDS011;30877;43.706;10.780;2023-04-15T17:38:38;2.03;;;0.88;;
45114;SDS011;30877;43.706;10.780;2023-04-15T17:41:08;2.67;;;1.25;;
45114;SDS011;30877;43.706;10.780;2023-04-15T17:43:37;4.57;;;1.80;;
45114;SDS011;30877;43.706;10.780;2023-04-15T17:46:07;2.13;;;1.23;;
45114;SDS011;30877;43.706;10.780;2023-04-15T17:48:38;2.58;;;1.40;;
45114;SDS011;30877;43.706;10.780;2023-04-15T17:51:07;4.68;;;2.28;;
45114;SDS011;30877;43.706;10.780;2023-04-15T17:53:35;3.10;;;1.73;;
45114;SDS011;30877;43.706;10.780;2023-04-15T17:56:03;3.05;;;1.35;;
45114;SDS011;30877;43.706;10.780;2023-04-15T17:58:33;3.80;;;1.15;;